sensor_id;sensor_type;location;lat;lon;timestamp;P1;durP1;ratioP1;P2;durP2;ratioP2
80307;SDS011;69616;43.522;1.348;2023-09-18T00:00:48;5.93;;;2.07;;
80307;SDS011;69616;43.522;1.348;2023-09-18T00:03:17;8.32;;;2.30;;
80307;SDS011;69616;43.522;1.348;2023-09-18T00:05:45;10.48;;;2.90;;
80307;SDS011;69616;43.522;1.348;2023-09-18T00:08:12;8.90;;;2.70;;
80307;SDS011;69616;43.522;1.348;2023-09-18T00:10:38;9.60;;;2.63;;
80307;SDS011;69616;43.522;1.348;2023-09-18T00:13:03;10.00;;;2.43;;
80307;SDS011;69616;43.522;1.348;2023-09-18T00:15:29;9.63;;;2.30;;
80307;SDS011;69616;43.522;1.348;2023-09-18T00:17:56;9.37;;;2.50;;
80307;SDS011;69616;43.522;1.348;2023-09-18T00:20:21;8.80;;;2.47;;
80307;SDS011;69616;43.522;1.348;2023-09-18T00:22:54;9.63;;;2.07;;
80307;SDS011;69616;43.522;1.348;2023-09-18T00:25:20;8.43;;;2.55;;
80307;SDS011;69616;43.522;1.348;2023-09-18T00:27:46;9.82;;;2.95;;
80307;SDS011;69616;43.522;1.348;2023-09-18T00:30:11;11.47;;;2.83;;
80307;SDS011;69616;43.522;1.348;2023-09-18T00:32:37;8.43;;;2.40;;
80307;SDS011;69616;43.522;1.348;2023-09-18T00:35:02;8.68;;;2.65;;
80307;SDS011;69616;43.522;1.348;2023-09-18T00:37:28;8.10;;;2.90;;
80307;SDS011;69616;43.522;1.348;2023-09-18T00:39:54;10.02;;;2.90;;
80307;SDS011;69616;43.522;1.348;2023-09-18T00:42:19;9.70;;;2.77;;
80307;SDS011;69616;43.522;1.348;2023-09-18T00:44:47;9.68;;;3.00;;
80307;SDS011;69616;43.522;1.348;2023-09-18T00:47:13;11.40;;;2.57;;
80307;SDS011;69616;43.522;1.348;2023-09-18T00:49:40;6.88;;;2.50;;
80307;SDS011;69616;43.522;1.348;2023-09-18T00:52:08;7.20;;;2.47;;
80307;SDS011;69616;43.522;1.348;2023-09-18T00:54:35;8.55;;;2.70;;
80307;SDS011;69616;43.522;1.348;2023-09-18T00:57:04;9.00;;;2.40;;
80307;SDS011;69616;43.522;1.348;2023-09-18T00:59:30;7.32;;;2.40;;
80307;SDS011;69616;43.522;1.348;2023-09-18T01:01:56;10.70;;;2.97;;
80307;SDS011;69616;43.522;1.348;2023-09-18T01:04:21;10.43;;;2.30;;
80307;SDS011;69616;43.522;1.348;2023-09-18T01:06:48;8.75;;;2.38;;
80307;SDS011;69616;43.522;1.348;2023-09-18T01:09:14;8.30;;;2.70;;
80307;SDS011;69616;43.522;1.348;2023-09-18T01:11:50;10.27;;;2.60;;
80307;SDS011;69616;43.522;1.348;2023-09-18T01:16:58;10.00;;;2.30;;
80307;SDS011;69616;43.522;1.348;2023-09-18T01:22:12;11.32;;;2.78;;
80307;SDS011;69616;43.522;1.348;2023-09-18T01:24:41;8.98;;;2.63;;
80307;SDS011;69616;43.522;1.348;2023-09-18T01:27:10;10.30;;;2.20;;
80307;SDS011;69616;43.522;1.348;2023-09-18T01:29:40;8.65;;;2.63;;
80307;SDS011;69616;43.522;1.348;2023-09-18T01:32:06;8.13;;;2.55;;
80307;SDS011;69616;43.522;1.348;2023-09-18T01:34:33;7.97;;;2.90;;
80307;SDS011;69616;43.522;1.348;2023-09-18T01:37:04;8.95;;;2.10;;
80307;SDS011;69616;43.522;1.348;2023-09-18T01:39:33;9.43;;;2.33;;
80307;SDS011;69616;43.522;1.348;2023-09-18T01:42:00;11.18;;;2.58;;
80307;SDS011;69616;43.522;1.348;2023-09-18T01:44:28;11.48;;;2.60;;
80307;SDS011;69616;43.522;1.348;2023-09-18T01:46:54;8.30;;;2.37;;
80307;SDS011;69616;43.522;1.348;2023-09-18T01:51:55;7.07;;;2.63;;
80307;SDS011;69616;43.522;1.348;2023-09-18T01:54:20;8.27;;;2.30;;
80307;SDS011;69616;43.522;1.348;2023-09-18T01:56:45;14.27;;;2.30;;
80307;SDS011;69616;43.522;1.348;2023-09-18T01:59:11;9.53;;;2.20;;
80307;SDS011;69616;43.522;1.348;2023-09-18T02:01:36;8.33;;;2.50;;
80307;SDS011;69616;43.522;1.348;2023-09-18T02:04:03;8.02;;;2.55;;
80307;SDS011;69616;43.522;1.348;2023-09-18T02:06:29;8.73;;;2.35;;
80307;SDS011;69616;43.522;1.348;2023-09-18T02:08:54;9.93;;;2.07;;
80307;SDS011;69616;43.522;1.348;2023-09-18T02:11:20;9.57;;;2.40;;
80307;SDS011;69616;43.522;1.348;2023-09-18T02:13:46;12.60;;;2.63;;
80307;SDS011;69616;43.522;1.348;2023-09-18T02:16:11;7.90;;;2.10;;
80307;SDS011;69616;43.522;1.348;2023-09-18T02:18:36;7.97;;;2.10;;
80307;SDS011;69616;43.522;1.348;2023-09-18T02:21:02;6.90;;;2.30;;
80307;SDS011;69616;43.522;1.348;2023-09-18T02:23:27;8.27;;;2.45;;
80307;SDS011;69616;43.522;1.348;2023-09-18T02:25:57;8.93;;;2.30;;
80307;SDS011;69616;43.522;1.348;2023-09-18T02:28:22;9.35;;;2.38;;
80307;SDS011;69616;43.522;1.348;2023-09-18T02:30:48;9.73;;;2.43;;
80307;SDS011;69616;43.522;1.348;2023-09-18T02:33:13;8.10;;;2.03;;
80307;SDS011;69616;43.522;1.348;2023-09-18T02:35:40;9.98;;;2.60;;
80307;SDS011;69616;43.522;1.348;2023-09-18T02:38:05;7.95;;;2.10;;
80307;SDS011;69616;43.522;1.348;2023-09-18T02:40:31;10.40;;;2.57;;
80307;SDS011;69616;43.522;1.348;2023-09-18T02:42:56;7.23;;;2.20;;
80307;SDS011;69616;43.522;1.348;2023-09-18T02:45:21;8.33;;;2.30;;
80307;SDS011;69616;43.522;1.348;2023-09-18T02:47:47;6.97;;;2.00;;
80307;SDS011;69616;43.522;1.348;2023-09-18T02:50:12;9.23;;;2.40;;
80307;SDS011;69616;43.522;1.348;2023-09-18T02:52:37;12.83;;;2.63;;
80307;SDS011;69616;43.522;1.348;2023-09-18T02:55:03;9.80;;;2.17;;
80307;SDS011;69616;43.522;1.348;2023-09-18T02:57:28;9.40;;;2.42;;
80307;SDS011;69616;43.522;1.348;2023-09-18T02:59:54;11.03;;;2.40;;
80307;SDS011;69616;43.522;1.348;2023-09-18T03:02:19;11.43;;;2.40;;
80307;SDS011;69616;43.522;1.348;2023-09-18T03:04:44;10.10;;;2.37;;
80307;SDS011;69616;43.522;1.348;2023-09-18T03:07:12;11.80;;;2.40;;
80307;SDS011;69616;43.522;1.348;2023-09-18T03:09:38;12.75;;;2.30;;
80307;SDS011;69616;43.522;1.348;2023-09-18T03:12:03;8.27;;;2.20;;
80307;SDS011;69616;43.522;1.348;2023-09-18T03:14:29;9.60;;;2.60;;
80307;SDS011;69616;43.522;1.348;2023-09-18T03:16:54;12.70;;;2.30;;
80307;SDS011;69616;43.522;1.348;2023-09-18T03:19:19;9.13;;;2.27;;
80307;SDS011;69616;43.522;1.348;2023-09-18T03:21:47;9.32;;;2.28;;
80307;SDS011;69616;43.522;1.348;2023-09-18T03:24:12;7.97;;;2.40;;
80307;SDS011;69616;43.522;1.348;2023-09-18T03:26:38;10.70;;;2.53;;
80307;SDS011;69616;43.522;1.348;2023-09-18T03:29:03;8.97;;;2.57;;
80307;SDS011;69616;43.522;1.348;2023-09-18T03:31:29;11.70;;;2.80;;
80307;SDS011;69616;43.522;1.348;2023-09-18T03:33:55;7.87;;;2.70;;
80307;SDS011;69616;43.522;1.348;2023-09-18T03:36:23;11.35;;;3.08;;
80307;SDS011;69616;43.522;1.348;2023-09-18T03:38:49;13.23;;;2.72;;
80307;SDS011;69616;43.522;1.348;2023-09-18T03:41:14;10.53;;;2.47;;
80307;SDS011;69616;43.522;1.348;2023-09-18T03:43:39;10.17;;;2.60;;
80307;SDS011;69616;43.522;1.348;2023-09-18T03:46:05;10.03;;;3.00;;
80307;SDS011;69616;43.522;1.348;2023-09-18T03:48:31;10.52;;;2.30;;
80307;SDS011;69616;43.522;1.348;2023-09-18T03:51:02;10.57;;;2.42;;
80307;SDS011;69616;43.522;1.348;2023-09-18T03:53:29;10.27;;;2.38;;
80307;SDS011;69616;43.522;1.348;2023-09-18T03:55:54;10.67;;;2.63;;
80307;SDS011;69616;43.522;1.348;2023-09-18T03:58:20;13.30;;;2.50;;
80307;SDS011;69616;43.522;1.348;2023-09-18T04:00:45;12.03;;;2.93;;
80307;SDS011;69616;43.522;1.348;2023-09-18T04:03:11;10.13;;;3.07;;
80307;SDS011;69616;43.522;1.348;2023-09-18T04:05:36;9.17;;;2.83;;
80307;SDS011;69616;43.522;1.348;2023-09-18T04:08:02;12.63;;;2.93;;
80307;SDS011;69616;43.522;1.348;2023-09-18T04:10:27;11.10;;;3.03;;
80307;SDS011;69616;43.522;1.348;2023-09-18T04:12:52;14.43;;;3.37;;
80307;SDS011;69616;43.522;1.348;2023-09-18T04:15:18;8.77;;;2.43;;
80307;SDS011;69616;43.522;1.348;2023-09-18T04:17:44;13.48;;;3.10;;
80307;SDS011;69616;43.522;1.348;2023-09-18T04:20:10;11.73;;;3.50;;
80307;SDS011;69616;43.522;1.348;2023-09-18T04:22:41;12.05;;;3.42;;
80307;SDS011;69616;43.522;1.348;2023-09-18T04:25:08;13.32;;;3.40;;
80307;SDS011;69616;43.522;1.348;2023-09-18T04:27:33;12.03;;;2.97;;
80307;SDS011;69616;43.522;1.348;2023-09-18T04:29:59;9.73;;;3.20;;
80307;SDS011;69616;43.522;1.348;2023-09-18T04:32:26;15.07;;;3.45;;
80307;SDS011;69616;43.522;1.348;2023-09-18T04:34:53;9.40;;;3.20;;
80307;SDS011;69616;43.522;1.348;2023-09-18T04:37:19;10.90;;;2.97;;
80307;SDS011;69616;43.522;1.348;2023-09-18T04:39:44;10.10;;;2.90;;
80307;SDS011;69616;43.522;1.348;2023-09-18T04:42:09;9.70;;;2.93;;
80307;SDS011;69616;43.522;1.348;2023-09-18T04:44:35;11.50;;;3.05;;
80307;SDS011;69616;43.522;1.348;2023-09-18T04:47:00;10.20;;;2.93;;
80307;SDS011;69616;43.522;1.348;2023-09-18T04:49:26;8.23;;;2.80;;
80307;SDS011;69616;43.522;1.348;2023-09-18T04:51:52;10.43;;;2.83;;
80307;SDS011;69616;43.522;1.348;2023-09-18T04:54:18;10.50;;;3.00;;
80307;SDS011;69616;43.522;1.348;2023-09-18T04:56:44;10.18;;;3.03;;
80307;SDS011;69616;43.522;1.348;2023-09-18T04:59:10;10.53;;;2.87;;
80307;SDS011;69616;43.522;1.348;2023-09-18T05:01:36;10.25;;;2.90;;
80307;SDS011;69616;43.522;1.348;2023-09-18T05:04:01;12.20;;;3.60;;
80307;SDS011;69616;43.522;1.348;2023-09-18T05:06:26;11.20;;;3.10;;
80307;SDS011;69616;43.522;1.348;2023-09-18T05:08:52;11.53;;;3.07;;
80307;SDS011;69616;43.522;1.348;2023-09-18T05:11:19;8.75;;;2.70;;
80307;SDS011;69616;43.522;1.348;2023-09-18T05:13:44;12.68;;;3.08;;
80307;SDS011;69616;43.522;1.348;2023-09-18T05:16:10;9.23;;;2.90;;
80307;SDS011;69616;43.522;1.348;2023-09-18T05:18:35;11.07;;;3.13;;
80307;SDS011;69616;43.522;1.348;2023-09-18T05:21:01;10.80;;;2.85;;
80307;SDS011;69616;43.522;1.348;2023-09-18T05:23:29;10.57;;;2.70;;
80307;SDS011;69616;43.522;1.348;2023-09-18T05:25:55;10.10;;;2.80;;
80307;SDS011;69616;43.522;1.348;2023-09-18T05:28:20;14.27;;;3.00;;
80307;SDS011;69616;43.522;1.348;2023-09-18T05:30:46;11.90;;;2.70;;
80307;SDS011;69616;43.522;1.348;2023-09-18T05:33:11;8.88;;;2.50;;
80307;SDS011;69616;43.522;1.348;2023-09-18T05:35:41;8.50;;;2.90;;
80307;SDS011;69616;43.522;1.348;2023-09-18T05:38:08;12.05;;;3.42;;
80307;SDS011;69616;43.522;1.348;2023-09-18T05:40:35;10.50;;;2.72;;
80307;SDS011;69616;43.522;1.348;2023-09-18T05:43:00;12.03;;;2.97;;
80307;SDS011;69616;43.522;1.348;2023-09-18T05:45:26;12.43;;;3.05;;
80307;SDS011;69616;43.522;1.348;2023-09-18T05:47:52;11.98;;;3.42;;
80307;SDS011;69616;43.522;1.348;2023-09-18T05:50:29;11.90;;;3.27;;
80307;SDS011;69616;43.522;1.348;2023-09-18T05:52:58;9.95;;;3.13;;
80307;SDS011;69616;43.522;1.348;2023-09-18T05:55:29;14.02;;;3.30;;
80307;SDS011;69616;43.522;1.348;2023-09-18T05:57:56;13.98;;;3.30;;
80307;SDS011;69616;43.522;1.348;2023-09-18T06:00:22;13.05;;;3.60;;
80307;SDS011;69616;43.522;1.348;2023-09-18T06:02:48;24.93;;;5.13;;
80307;SDS011;69616;43.522;1.348;2023-09-18T06:05:16;25.65;;;5.70;;
80307;SDS011;69616;43.522;1.348;2023-09-18T06:07:41;20.27;;;5.07;;
80307;SDS011;69616;43.522;1.348;2023-09-18T06:10:07;22.93;;;5.23;;
80307;SDS011;69616;43.522;1.348;2023-09-18T06:12:33;21.95;;;5.90;;
80307;SDS011;69616;43.522;1.348;2023-09-18T06:14:58;23.83;;;4.70;;
80307;SDS011;69616;43.522;1.348;2023-09-18T06:17:24;23.57;;;4.97;;
80307;SDS011;69616;43.522;1.348;2023-09-18T06:19:49;19.43;;;5.13;;
80307;SDS011;69616;43.522;1.348;2023-09-18T06:22:14;22.38;;;4.82;;
80307;SDS011;69616;43.522;1.348;2023-09-18T06:24:40;14.93;;;4.30;;
80307;SDS011;69616;43.522;1.348;2023-09-18T06:27:06;22.23;;;5.20;;
80307;SDS011;69616;43.522;1.348;2023-09-18T06:29:32;18.17;;;5.70;;
80307;SDS011;69616;43.522;1.348;2023-09-18T06:31:57;23.60;;;5.43;;
80307;SDS011;69616;43.522;1.348;2023-09-18T06:34:23;23.50;;;5.73;;
80307;SDS011;69616;43.522;1.348;2023-09-18T06:36:48;28.13;;;6.10;;
80307;SDS011;69616;43.522;1.348;2023-09-18T06:39:14;27.83;;;6.30;;
80307;SDS011;69616;43.522;1.348;2023-09-18T06:41:40;27.37;;;6.50;;
80307;SDS011;69616;43.522;1.348;2023-09-18T06:44:05;28.17;;;7.50;;
80307;SDS011;69616;43.522;1.348;2023-09-18T06:46:31;36.87;;;7.83;;
80307;SDS011;69616;43.522;1.348;2023-09-18T06:48:57;32.35;;;7.25;;
80307;SDS011;69616;43.522;1.348;2023-09-18T06:51:25;26.45;;;6.93;;
80307;SDS011;69616;43.522;1.348;2023-09-18T06:53:53;34.28;;;8.60;;
80307;SDS011;69616;43.522;1.348;2023-09-18T06:56:18;38.03;;;8.53;;
80307;SDS011;69616;43.522;1.348;2023-09-18T06:58:44;32.53;;;9.48;;
80307;SDS011;69616;43.522;1.348;2023-09-18T07:01:09;40.77;;;9.17;;
80307;SDS011;69616;43.522;1.348;2023-09-18T07:03:35;39.70;;;9.90;;
80307;SDS011;69616;43.522;1.348;2023-09-18T07:06:01;44.00;;;10.18;;
80307;SDS011;69616;43.522;1.348;2023-09-18T07:08:29;44.65;;;10.55;;
80307;SDS011;69616;43.522;1.348;2023-09-18T07:10:55;44.17;;;10.18;;
80307;SDS011;69616;43.522;1.348;2023-09-18T07:13:20;39.10;;;11.40;;
80307;SDS011;69616;43.522;1.348;2023-09-18T07:15:45;47.20;;;11.97;;
80307;SDS011;69616;43.522;1.348;2023-09-18T07:18:12;44.30;;;11.18;;
80307;SDS011;69616;43.522;1.348;2023-09-18T07:20:45;40.10;;;11.73;;
80307;SDS011;69616;43.522;1.348;2023-09-18T07:23:10;41.97;;;11.90;;
80307;SDS011;69616;43.522;1.348;2023-09-18T07:25:36;41.80;;;11.57;;
80307;SDS011;69616;43.522;1.348;2023-09-18T07:28:04;45.08;;;11.35;;
80307;SDS011;69616;43.522;1.348;2023-09-18T07:30:31;44.87;;;11.40;;
80307;SDS011;69616;43.522;1.348;2023-09-18T07:32:56;54.58;;;13.32;;
80307;SDS011;69616;43.522;1.348;2023-09-18T07:35:23;41.60;;;12.33;;
80307;SDS011;69616;43.522;1.348;2023-09-18T07:37:48;38.38;;;11.98;;
80307;SDS011;69616;43.522;1.348;2023-09-18T07:40:14;38.27;;;12.00;;
80307;SDS011;69616;43.522;1.348;2023-09-18T07:42:40;51.63;;;14.23;;
80307;SDS011;69616;43.522;1.348;2023-09-18T07:45:06;46.77;;;12.97;;
80307;SDS011;69616;43.522;1.348;2023-09-18T07:47:32;50.70;;;14.63;;
80307;SDS011;69616;43.522;1.348;2023-09-18T07:49:57;50.73;;;14.23;;
80307;SDS011;69616;43.522;1.348;2023-09-18T07:52:22;42.53;;;12.83;;
80307;SDS011;69616;43.522;1.348;2023-09-18T07:54:48;65.33;;;14.27;;
80307;SDS011;69616;43.522;1.348;2023-09-18T07:57:13;45.70;;;13.50;;
80307;SDS011;69616;43.522;1.348;2023-09-18T07:59:38;48.97;;;13.77;;
80307;SDS011;69616;43.522;1.348;2023-09-18T08:02:04;48.77;;;13.33;;
80307;SDS011;69616;43.522;1.348;2023-09-18T08:04:31;54.33;;;13.93;;
80307;SDS011;69616;43.522;1.348;2023-09-18T08:06:57;44.08;;;14.50;;
80307;SDS011;69616;43.522;1.348;2023-09-18T08:09:22;52.13;;;14.37;;
80307;SDS011;69616;43.522;1.348;2023-09-18T08:11:48;62.95;;;15.25;;
80307;SDS011;69616;43.522;1.348;2023-09-18T08:14:14;39.45;;;14.00;;
80307;SDS011;69616;43.522;1.348;2023-09-18T08:16:40;40.03;;;13.33;;
80307;SDS011;69616;43.522;1.348;2023-09-18T08:19:06;49.73;;;15.47;;
80307;SDS011;69616;43.522;1.348;2023-09-18T08:21:32;43.60;;;15.05;;
80307;SDS011;69616;43.522;1.348;2023-09-18T08:23:57;52.90;;;15.07;;
80307;SDS011;69616;43.522;1.348;2023-09-18T08:26:23;50.33;;;15.37;;
80307;SDS011;69616;43.522;1.348;2023-09-18T08:28:48;41.40;;;14.97;;
80307;SDS011;69616;43.522;1.348;2023-09-18T08:31:13;30.03;;;13.00;;
80307;SDS011;69616;43.522;1.348;2023-09-18T08:33:41;38.28;;;12.00;;
80307;SDS011;69616;43.522;1.348;2023-09-18T08:36:07;35.22;;;12.65;;
80307;SDS011;69616;43.522;1.348;2023-09-18T08:38:32;37.03;;;13.57;;
80307;SDS011;69616;43.522;1.348;2023-09-18T08:40:58;40.63;;;13.83;;
80307;SDS011;69616;43.522;1.348;2023-09-18T08:43:24;40.78;;;14.52;;
80307;SDS011;69616;43.522;1.348;2023-09-18T08:45:53;38.20;;;14.20;;
80307;SDS011;69616;43.522;1.348;2023-09-18T08:48:20;35.23;;;12.57;;
80307;SDS011;69616;43.522;1.348;2023-09-18T08:50:49;38.80;;;13.60;;
80307;SDS011;69616;43.522;1.348;2023-09-18T08:53:16;46.35;;;14.98;;
80307;SDS011;69616;43.522;1.348;2023-09-18T08:55:41;36.83;;;15.40;;
80307;SDS011;69616;43.522;1.348;2023-09-18T08:58:07;42.20;;;14.48;;
80307;SDS011;69616;43.522;1.348;2023-09-18T09:00:33;45.73;;;13.87;;
80307;SDS011;69616;43.522;1.348;2023-09-18T09:03:02;43.58;;;12.10;;
80307;SDS011;69616;43.522;1.348;2023-09-18T09:05:29;36.38;;;12.20;;
80307;SDS011;69616;43.522;1.348;2023-09-18T09:07:55;32.88;;;10.32;;
80307;SDS011;69616;43.522;1.348;2023-09-18T09:10:21;36.50;;;10.73;;
80307;SDS011;69616;43.522;1.348;2023-09-18T09:12:56;32.00;;;10.37;;
80307;SDS011;69616;43.522;1.348;2023-09-18T09:15:25;34.95;;;10.13;;
80307;SDS011;69616;43.522;1.348;2023-09-18T09:18:04;34.95;;;10.50;;
80307;SDS011;69616;43.522;1.348;2023-09-18T09:20:31;32.80;;;9.55;;
80307;SDS011;69616;43.522;1.348;2023-09-18T09:23:00;31.50;;;10.40;;
80307;SDS011;69616;43.522;1.348;2023-09-18T09:25:28;33.87;;;9.07;;
80307;SDS011;69616;43.522;1.348;2023-09-18T09:27:56;28.00;;;8.52;;
80307;SDS011;69616;43.522;1.348;2023-09-18T09:30:27;22.17;;;7.95;;
80307;SDS011;69616;43.522;1.348;2023-09-18T09:32:57;34.22;;;10.00;;
80307;SDS011;69616;43.522;1.348;2023-09-18T09:35:23;27.40;;;9.38;;
80307;SDS011;69616;43.522;1.348;2023-09-18T09:37:55;29.30;;;9.40;;
80307;SDS011;69616;43.522;1.348;2023-09-18T09:40:23;32.78;;;10.07;;
80307;SDS011;69616;43.522;1.348;2023-09-18T09:42:56;22.90;;;8.20;;
80307;SDS011;69616;43.522;1.348;2023-09-18T09:45:26;29.60;;;7.82;;
80307;SDS011;69616;43.522;1.348;2023-09-18T09:47:56;21.52;;;7.65;;
80307;SDS011;69616;43.522;1.348;2023-09-18T09:50:23;20.27;;;7.70;;
80307;SDS011;69616;43.522;1.348;2023-09-18T09:52:50;22.23;;;6.93;;
80307;SDS011;69616;43.522;1.348;2023-09-18T09:55:36;18.50;;;6.60;;
80307;SDS011;69616;43.522;1.348;2023-09-18T09:58:04;20.20;;;6.40;;
80307;SDS011;69616;43.522;1.348;2023-09-18T10:03:11;21.03;;;5.90;;
80307;SDS011;69616;43.522;1.348;2023-09-18T10:05:40;15.82;;;6.20;;
80307;SDS011;69616;43.522;1.348;2023-09-18T10:08:08;14.77;;;6.15;;
80307;SDS011;69616;43.522;1.348;2023-09-18T10:10:40;16.55;;;6.20;;
80307;SDS011;69616;43.522;1.348;2023-09-18T10:13:12;14.68;;;5.68;;
80307;SDS011;69616;43.522;1.348;2023-09-18T10:15:44;18.23;;;5.87;;
80307;SDS011;69616;43.522;1.348;2023-09-18T10:18:28;12.80;;;5.43;;
80307;SDS011;69616;43.522;1.348;2023-09-18T10:20:57;14.93;;;5.47;;
80307;SDS011;69616;43.522;1.348;2023-09-18T10:26:37;11.10;;;4.15;;
80307;SDS011;69616;43.522;1.348;2023-09-18T10:29:12;12.63;;;5.27;;
80307;SDS011;69616;43.522;1.348;2023-09-18T10:31:39;13.13;;;5.28;;
80307;SDS011;69616;43.522;1.348;2023-09-18T10:34:06;12.75;;;5.07;;
80307;SDS011;69616;43.522;1.348;2023-09-18T10:36:33;11.07;;;4.63;;
80307;SDS011;69616;43.522;1.348;2023-09-18T10:39:00;13.68;;;4.78;;
80307;SDS011;69616;43.522;1.348;2023-09-18T10:41:26;11.50;;;4.90;;
80307;SDS011;69616;43.522;1.348;2023-09-18T10:43:53;11.83;;;4.90;;
80307;SDS011;69616;43.522;1.348;2023-09-18T10:46:19;13.90;;;4.73;;
80307;SDS011;69616;43.522;1.348;2023-09-18T10:48:45;12.63;;;4.57;;
80307;SDS011;69616;43.522;1.348;2023-09-18T10:51:11;12.23;;;4.22;;
80307;SDS011;69616;43.522;1.348;2023-09-18T10:53:38;12.40;;;4.10;;
80307;SDS011;69616;43.522;1.348;2023-09-18T10:56:04;10.47;;;4.17;;
80307;SDS011;69616;43.522;1.348;2023-09-18T10:58:30;12.65;;;3.83;;
80307;SDS011;69616;43.522;1.348;2023-09-18T11:00:56;10.97;;;4.10;;
80307;SDS011;69616;43.522;1.348;2023-09-18T11:03:22;10.50;;;4.05;;
80307;SDS011;69616;43.522;1.348;2023-09-18T11:05:49;13.43;;;4.05;;
80307;SDS011;69616;43.522;1.348;2023-09-18T11:08:29;9.50;;;3.88;;
80307;SDS011;69616;43.522;1.348;2023-09-18T11:11:17;12.30;;;3.57;;
80307;SDS011;69616;43.522;1.348;2023-09-18T11:13:50;13.63;;;3.83;;
80307;SDS011;69616;43.522;1.348;2023-09-18T11:18:54;11.00;;;3.90;;
80307;SDS011;69616;43.522;1.348;2023-09-18T11:21:32;10.60;;;3.70;;
80307;SDS011;69616;43.522;1.348;2023-09-18T11:26:24;11.20;;;3.60;;
80307;SDS011;69616;43.522;1.348;2023-09-18T11:28:54;10.27;;;3.77;;
80307;SDS011;69616;43.522;1.348;2023-09-18T11:31:19;7.75;;;3.60;;
80307;SDS011;69616;43.522;1.348;2023-09-18T11:33:47;11.17;;;3.67;;
80307;SDS011;69616;43.522;1.348;2023-09-18T11:36:13;8.80;;;3.83;;
80307;SDS011;69616;43.522;1.348;2023-09-18T11:38:54;10.52;;;3.85;;
80307;SDS011;69616;43.522;1.348;2023-09-18T11:41:34;12.63;;;3.72;;
80307;SDS011;69616;43.522;1.348;2023-09-18T11:46:48;10.38;;;4.03;;
80307;SDS011;69616;43.522;1.348;2023-09-18T11:49:22;14.43;;;3.95;;
80307;SDS011;69616;43.522;1.348;2023-09-18T11:51:48;12.90;;;3.97;;
80307;SDS011;69616;43.522;1.348;2023-09-18T11:54:15;11.98;;;4.10;;
80307;SDS011;69616;43.522;1.348;2023-09-18T11:56:42;13.03;;;4.07;;
80307;SDS011;69616;43.522;1.348;2023-09-18T11:59:07;11.27;;;3.90;;
80307;SDS011;69616;43.522;1.348;2023-09-18T12:01:34;10.40;;;4.00;;
80307;SDS011;69616;43.522;1.348;2023-09-18T12:04:04;10.83;;;3.77;;
80307;SDS011;69616;43.522;1.348;2023-09-18T12:06:34;13.50;;;3.97;;
80307;SDS011;69616;43.522;1.348;2023-09-18T12:09:00;11.27;;;3.90;;
80307;SDS011;69616;43.522;1.348;2023-09-18T12:11:25;14.47;;;4.40;;
80307;SDS011;69616;43.522;1.348;2023-09-18T12:13:51;12.40;;;3.93;;
80307;SDS011;69616;43.522;1.348;2023-09-18T12:16:17;9.05;;;3.80;;
80307;SDS011;69616;43.522;1.348;2023-09-18T12:18:47;12.73;;;4.10;;
80307;SDS011;69616;43.522;1.348;2023-09-18T12:21:13;11.52;;;3.70;;
80307;SDS011;69616;43.522;1.348;2023-09-18T12:23:40;11.90;;;3.38;;
80307;SDS011;69616;43.522;1.348;2023-09-18T12:26:10;12.73;;;3.38;;
80307;SDS011;69616;43.522;1.348;2023-09-18T12:28:38;8.60;;;3.20;;
80307;SDS011;69616;43.522;1.348;2023-09-18T12:31:04;13.77;;;3.90;;
80307;SDS011;69616;43.522;1.348;2023-09-18T12:33:33;7.93;;;3.20;;
80307;SDS011;69616;43.522;1.348;2023-09-18T12:36:00;11.48;;;3.72;;
80307;SDS011;69616;43.522;1.348;2023-09-18T12:38:26;9.18;;;3.60;;
80307;SDS011;69616;43.522;1.348;2023-09-18T12:40:53;10.83;;;3.37;;
80307;SDS011;69616;43.522;1.348;2023-09-18T12:43:20;9.02;;;3.38;;
80307;SDS011;69616;43.522;1.348;2023-09-18T12:45:50;9.55;;;3.17;;
80307;SDS011;69616;43.522;1.348;2023-09-18T12:48:17;8.55;;;3.00;;
80307;SDS011;69616;43.522;1.348;2023-09-18T12:50:43;9.97;;;3.37;;
80307;SDS011;69616;43.522;1.348;2023-09-18T12:53:09;9.17;;;3.40;;
80307;SDS011;69616;43.522;1.348;2023-09-18T12:55:38;15.38;;;3.63;;
80307;SDS011;69616;43.522;1.348;2023-09-18T12:58:05;7.38;;;3.30;;
80307;SDS011;69616;43.522;1.348;2023-09-18T13:00:32;8.32;;;2.90;;
80307;SDS011;69616;43.522;1.348;2023-09-18T13:02:59;7.00;;;3.13;;
80307;SDS011;69616;43.522;1.348;2023-09-18T13:05:25;7.53;;;2.63;;
80307;SDS011;69616;43.522;1.348;2023-09-18T13:07:51;6.15;;;2.58;;
80307;SDS011;69616;43.522;1.348;2023-09-18T13:10:17;9.55;;;2.50;;
80307;SDS011;69616;43.522;1.348;2023-09-18T13:15:11;5.90;;;2.00;;
80307;SDS011;69616;43.522;1.348;2023-09-18T13:17:46;7.53;;;2.17;;
80307;SDS011;69616;43.522;1.348;2023-09-18T13:22:41;9.88;;;2.20;;
80307;SDS011;69616;43.522;1.348;2023-09-18T13:25:10;9.52;;;1.85;;
80307;SDS011;69616;43.522;1.348;2023-09-18T13:27:36;7.77;;;2.00;;
80307;SDS011;69616;43.522;1.348;2023-09-18T13:30:02;5.00;;;1.70;;
80307;SDS011;69616;43.522;1.348;2023-09-18T13:32:35;7.22;;;2.22;;
80307;SDS011;69616;43.522;1.348;2023-09-18T13:35:02;7.65;;;2.22;;
80307;SDS011;69616;43.522;1.348;2023-09-18T13:37:30;5.70;;;1.80;;
80307;SDS011;69616;43.522;1.348;2023-09-18T13:39:57;5.87;;;1.80;;
80307;SDS011;69616;43.522;1.348;2023-09-18T13:42:22;6.93;;;1.90;;
80307;SDS011;69616;43.522;1.348;2023-09-18T13:44:47;7.07;;;2.30;;
80307;SDS011;69616;43.522;1.348;2023-09-18T13:47:14;8.40;;;2.30;;
80307;SDS011;69616;43.522;1.348;2023-09-18T13:49:40;6.20;;;2.07;;
80307;SDS011;69616;43.522;1.348;2023-09-18T13:52:05;8.17;;;2.50;;
80307;SDS011;69616;43.522;1.348;2023-09-18T13:54:30;9.70;;;2.13;;
80307;SDS011;69616;43.522;1.348;2023-09-18T13:56:56;4.67;;;1.63;;
80307;SDS011;69616;43.522;1.348;2023-09-18T13:59:21;5.00;;;1.60;;
80307;SDS011;69616;43.522;1.348;2023-09-18T14:01:47;5.03;;;1.60;;
80307;SDS011;69616;43.522;1.348;2023-09-18T14:04:12;6.00;;;1.95;;
80307;SDS011;69616;43.522;1.348;2023-09-18T14:06:38;9.20;;;1.80;;
80307;SDS011;69616;43.522;1.348;2023-09-18T14:09:03;6.80;;;1.90;;
80307;SDS011;69616;43.522;1.348;2023-09-18T14:11:30;6.13;;;1.90;;
80307;SDS011;69616;43.522;1.348;2023-09-18T14:13:56;7.25;;;1.98;;
80307;SDS011;69616;43.522;1.348;2023-09-18T14:16:21;6.13;;;1.97;;
80307;SDS011;69616;43.522;1.348;2023-09-18T14:18:47;7.13;;;1.80;;
80307;SDS011;69616;43.522;1.348;2023-09-18T14:21:12;6.10;;;1.93;;
80307;SDS011;69616;43.522;1.348;2023-09-18T14:23:38;7.13;;;1.77;;
80307;SDS011;69616;43.522;1.348;2023-09-18T14:26:03;10.17;;;1.63;;
80307;SDS011;69616;43.522;1.348;2023-09-18T14:28:28;5.43;;;1.47;;
80307;SDS011;69616;43.522;1.348;2023-09-18T14:30:54;7.10;;;1.57;;
80307;SDS011;69616;43.522;1.348;2023-09-18T14:33:19;5.57;;;1.50;;
80307;SDS011;69616;43.522;1.348;2023-09-18T14:35:45;5.93;;;1.27;;
80307;SDS011;69616;43.522;1.348;2023-09-18T14:38:10;4.57;;;1.00;;
80307;SDS011;69616;43.522;1.348;2023-09-18T14:40:35;4.90;;;1.10;;
80307;SDS011;69616;43.522;1.348;2023-09-18T14:43:01;4.77;;;1.10;;
80307;SDS011;69616;43.522;1.348;2023-09-18T14:45:26;4.07;;;1.00;;
80307;SDS011;69616;43.522;1.348;2023-09-18T14:47:51;4.77;;;1.27;;
80307;SDS011;69616;43.522;1.348;2023-09-18T14:50:17;4.47;;;0.80;;
80307;SDS011;69616;43.522;1.348;2023-09-18T14:52:43;4.67;;;0.90;;
80307;SDS011;69616;43.522;1.348;2023-09-18T14:55:08;4.17;;;1.00;;
80307;SDS011;69616;43.522;1.348;2023-09-18T14:57:33;4.65;;;1.00;;
80307;SDS011;69616;43.522;1.348;2023-09-18T14:59:59;4.27;;;1.00;;
80307;SDS011;69616;43.522;1.348;2023-09-18T15:02:24;4.03;;;0.80;;